sensor_id;sensor_type;location;lat;lon;timestamp;P1;durP1;ratioP1;P2;durP2;ratioP2
11255;SDS011;5685;52.384;13.420;2022-08-25T00:00:43;14.87;;;13.60;;
11255;SDS011;5685;52.384;13.420;2022-08-25T00:03:46;15.00;;;13.73;;
11255;SDS011;5685;52.384;13.420;2022-08-25T00:06:50;15.03;;;13.40;;
11255;SDS011;5685;52.384;13.420;2022-08-25T00:09:54;14.27;;;13.00;;
11255;SDS011;5685;52.384;13.420;2022-08-25T00:12:57;14.47;;;13.37;;
11255;SDS011;5685;52.384;13.420;2022-08-25T00:15:59;14.90;;;13.70;;
11255;SDS011;5685;52.384;13.420;2022-08-25T00:19:03;14.43;;;13.23;;
11255;SDS011;5685;52.384;13.420;2022-08-25T00:22:10;16.20;;;14.73;;
11255;SDS011;5685;52.384;13.420;2022-08-25T00:25:13;14.10;;;13.00;;
11255;SDS011;5685;52.384;13.420;2022-08-25T00:28:16;14.33;;;13.27;;
11255;SDS011;5685;52.384;13.420;2022-08-25T00:31:19;15.47;;;13.80;;
11255;SDS011;5685;52.384;13.420;2022-08-25T00:34:24;14.87;;;13.63;;
11255;SDS011;5685;52.384;13.420;2022-08-25T00:37:30;14.57;;;13.37;;
11255;SDS011;5685;52.384;13.420;2022-08-25T00:40:33;16.07;;;14.07;;
11255;SDS011;5685;52.384;13.420;2022-08-25T00:43:43;15.27;;;13.83;;
11255;SDS011;5685;52.384;13.420;2022-08-25T00:46:51;15.23;;;13.77;;
11255;SDS011;5685;52.384;13.420;2022-08-25T00:49:57;13.80;;;12.80;;
11255;SDS011;5685;52.384;13.420;2022-08-25T00:53:03;15.27;;;14.17;;
11255;SDS011;5685;52.384;13.420;2022-08-25T00:56:05;15.37;;;14.03;;
11255;SDS011;5685;52.384;13.420;2022-08-25T00:59:08;14.60;;;13.30;;
11255;SDS011;5685;52.384;13.420;2022-08-25T01:02:11;15.60;;;13.53;;
11255;SDS011;5685;52.384;13.420;2022-08-25T01:05:16;14.87;;;13.63;;
11255;SDS011;5685;52.384;13.420;2022-08-25T01:08:21;14.97;;;13.73;;
11255;SDS011;5685;52.384;13.420;2022-08-25T01:11:27;14.10;;;13.10;;
11255;SDS011;5685;52.384;13.420;2022-08-25T01:14:29;15.17;;;13.63;;
11255;SDS011;5685;52.384;13.420;2022-08-25T01:17:33;15.00;;;13.60;;
11255;SDS011;5685;52.384;13.420;2022-08-25T01:20:48;15.00;;;13.73;;
11255;SDS011;5685;52.384;13.420;2022-08-25T01:23:51;15.83;;;14.27;;
11255;SDS011;5685;52.384;13.420;2022-08-25T01:26:54;15.37;;;14.27;;
11255;SDS011;5685;52.384;13.420;2022-08-25T01:29:56;15.27;;;13.97;;
11255;SDS011;5685;52.384;13.420;2022-08-25T01:33:01;15.47;;;13.93;;
11255;SDS011;5685;52.384;13.420;2022-08-25T01:36:06;15.23;;;13.93;;
11255;SDS011;5685;52.384;13.420;2022-08-25T01:39:08;15.13;;;13.73;;
11255;SDS011;5685;52.384;13.420;2022-08-25T01:42:13;15.03;;;14.03;;
11255;SDS011;5685;52.384;13.420;2022-08-25T01:45:28;14.93;;;13.53;;
11255;SDS011;5685;52.384;13.420;2022-08-25T01:48:30;15.83;;;14.33;;
11255;SDS011;5685;52.384;13.420;2022-08-25T01:51:37;15.63;;;14.30;;
11255;SDS011;5685;52.384;13.420;2022-08-25T01:54:43;14.63;;;13.37;;
11255;SDS011;5685;52.384;13.420;2022-08-25T01:57:46;15.83;;;14.63;;
11255;SDS011;5685;52.384;13.420;2022-08-25T02:00:49;16.93;;;14.70;;
11255;SDS011;5685;52.384;13.420;2022-08-25T02:03:56;15.57;;;14.30;;
11255;SDS011;5685;52.384;13.420;2022-08-25T02:07:00;16.13;;;14.63;;
11255;SDS011;5685;52.384;13.420;2022-08-25T02:10:06;15.30;;;14.03;;
11255;SDS011;5685;52.384;13.420;2022-08-25T02:13:10;15.97;;;14.50;;
11255;SDS011;5685;52.384;13.420;2022-08-25T02:16:14;21.97;;;15.00;;
11255;SDS011;5685;52.384;13.420;2022-08-25T02:19:21;15.13;;;14.03;;
11255;SDS011;5685;52.384;13.420;2022-08-25T02:22:26;13.90;;;13.00;;
11255;SDS011;5685;52.384;13.420;2022-08-25T02:25:29;14.37;;;13.27;;
11255;SDS011;5685;52.384;13.420;2022-08-25T02:28:32;14.73;;;13.53;;
11255;SDS011;5685;52.384;13.420;2022-08-25T02:31:35;13.70;;;12.90;;
11255;SDS011;5685;52.384;13.420;2022-08-25T02:34:38;14.53;;;13.47;;
11255;SDS011;5685;52.384;13.420;2022-08-25T02:37:42;14.40;;;13.37;;
11255;SDS011;5685;52.384;13.420;2022-08-25T02:40:45;14.20;;;13.20;;
11255;SDS011;5685;52.384;13.420;2022-08-25T02:43:47;13.80;;;12.80;;
11255;SDS011;5685;52.384;13.420;2022-08-25T02:46:50;14.03;;;13.03;;
11255;SDS011;5685;52.384;13.420;2022-08-25T02:49:52;14.20;;;13.20;;
11255;SDS011;5685;52.384;13.420;2022-08-25T02:52:56;15.03;;;13.80;;
11255;SDS011;5685;52.384;13.420;2022-08-25T02:55:58;13.73;;;12.73;;
11255;SDS011;5685;52.384;13.420;2022-08-25T02:59:01;13.37;;;12.47;;
11255;SDS011;5685;52.384;13.420;2022-08-25T03:02:04;14.17;;;12.93;;
11255;SDS011;5685;52.384;13.420;2022-08-25T03:05:07;14.20;;;13.30;;
11255;SDS011;5685;52.384;13.420;2022-08-25T03:08:13;14.13;;;13.20;;
11255;SDS011;5685;52.384;13.420;2022-08-25T03:11:16;13.43;;;12.53;;
11255;SDS011;5685;52.384;13.420;2022-08-25T03:14:18;14.23;;;13.27;;
11255;SDS011;5685;52.384;13.420;2022-08-25T03:17:20;14.27;;;13.20;;
11255;SDS011;5685;52.384;13.420;2022-08-25T03:20:23;13.20;;;12.40;;
11255;SDS011;5685;52.384;13.420;2022-08-25T03:23:28;14.33;;;13.20;;
11255;SDS011;5685;52.384;13.420;2022-08-25T03:26:30;14.70;;;13.60;;
11255;SDS011;5685;52.384;13.420;2022-08-25T03:29:50;14.67;;;13.57;;
11255;SDS011;5685;52.384;13.420;2022-08-25T03:32:54;13.03;;;12.17;;
11255;SDS011;5685;52.384;13.420;2022-08-25T03:35:57;14.13;;;13.10;;
11255;SDS011;5685;52.384;13.420;2022-08-25T03:39:02;13.40;;;12.50;;
11255;SDS011;5685;52.384;13.420;2022-08-25T03:42:07;14.17;;;13.03;;
11255;SDS011;5685;52.384;13.420;2022-08-25T03:45:12;13.57;;;12.67;;
11255;SDS011;5685;52.384;13.420;2022-08-25T03:48:17;14.83;;;13.53;;
11255;SDS011;5685;52.384;13.420;2022-08-25T03:51:20;13.23;;;12.33;;
11255;SDS011;5685;52.384;13.420;2022-08-25T03:54:26;13.93;;;12.93;;
11255;SDS011;5685;52.384;13.420;2022-08-25T03:57:29;13.17;;;12.37;;
11255;SDS011;5685;52.384;13.420;2022-08-25T04:00:31;14.00;;;12.83;;
11255;SDS011;5685;52.384;13.420;2022-08-25T04:03:33;14.40;;;13.10;;
11255;SDS011;5685;52.384;13.420;2022-08-25T04:06:36;14.53;;;13.47;;
11255;SDS011;5685;52.384;13.420;2022-08-25T04:09:41;14.17;;;13.07;;
11255;SDS011;5685;52.384;13.420;2022-08-25T04:12:43;13.33;;;12.50;;
11255;SDS011;5685;52.384;13.420;2022-08-25T04:15:46;13.93;;;12.57;;
11255;SDS011;5685;52.384;13.420;2022-08-25T04:18:48;15.00;;;13.80;;
11255;SDS011;5685;52.384;13.420;2022-08-25T04:21:52;14.57;;;13.27;;
11255;SDS011;5685;52.384;13.420;2022-08-25T04:24:56;15.03;;;13.73;;
11255;SDS011;5685;52.384;13.420;2022-08-25T04:27:59;14.00;;;12.83;;
11255;SDS011;5685;52.384;13.420;2022-08-25T04:31:04;14.33;;;13.23;;
11255;SDS011;5685;52.384;13.420;2022-08-25T04:34:08;13.97;;;12.87;;
11255;SDS011;5685;52.384;13.420;2022-08-25T04:37:10;14.73;;;13.63;;
11255;SDS011;5685;52.384;13.420;2022-08-25T04:40:14;15.03;;;13.83;;
11255;SDS011;5685;52.384;13.420;2022-08-25T04:43:17;14.10;;;13.10;;
11255;SDS011;5685;52.384;13.420;2022-08-25T04:46:20;14.33;;;13.30;;
11255;SDS011;5685;52.384;13.420;2022-08-25T04:49:24;14.10;;;13.17;;
11255;SDS011;5685;52.384;13.420;2022-08-25T04:52:27;14.23;;;12.93;;
11255;SDS011;5685;52.384;13.420;2022-08-25T04:55:30;14.47;;;13.17;;
11255;SDS011;5685;52.384;13.420;2022-08-25T04:58:33;13.87;;;12.93;;
11255;SDS011;5685;52.384;13.420;2022-08-25T05:01:37;14.60;;;13.40;;
11255;SDS011;5685;52.384;13.420;2022-08-25T05:04:40;14.37;;;13.00;;
11255;SDS011;5685;52.384;13.420;2022-08-25T05:07:43;14.73;;;13.43;;
11255;SDS011;5685;52.384;13.420;2022-08-25T05:10:48;14.03;;;12.97;;
11255;SDS011;5685;52.384;13.420;2022-08-25T05:13:53;14.40;;;13.30;;
11255;SDS011;5685;52.384;13.420;2022-08-25T05:16:57;14.30;;;13.10;;
11255;SDS011;5685;52.384;13.420;2022-08-25T05:20:00;14.30;;;13.30;;
11255;SDS011;5685;52.384;13.420;2022-08-25T05:23:05;14.77;;;13.47;;
11255;SDS011;5685;52.384;13.420;2022-08-25T05:26:11;14.10;;;13.20;;
11255;SDS011;5685;52.384;13.420;2022-08-25T05:29:16;14.83;;;13.63;;
11255;SDS011;5685;52.384;13.420;2022-08-25T05:32:18;14.87;;;13.37;;
11255;SDS011;5685;52.384;13.420;2022-08-25T05:35:20;15.50;;;14.37;;
11255;SDS011;5685;52.384;13.420;2022-08-25T05:38:23;14.73;;;13.47;;
11255;SDS011;5685;52.384;13.420;2022-08-25T05:41:27;14.43;;;13.33;;
11255;SDS011;5685;52.384;13.420;2022-08-25T05:44:30;15.53;;;14.13;;
11255;SDS011;5685;52.384;13.420;2022-08-25T05:47:33;16.23;;;14.93;;
11255;SDS011;5685;52.384;13.420;2022-08-25T05:50:35;19.53;;;17.53;;
11255;SDS011;5685;52.384;13.420;2022-08-25T05:53:38;20.63;;;17.40;;
11255;SDS011;5685;52.384;13.420;2022-08-25T05:56:43;19.50;;;16.90;;
11255;SDS011;5685;52.384;13.420;2022-08-25T05:59:46;20.00;;;17.37;;
11255;SDS011;5685;52.384;13.420;2022-08-25T06:02:48;20.50;;;18.23;;
11255;SDS011;5685;52.384;13.420;2022-08-25T06:05:50;22.17;;;19.87;;
11255;SDS011;5685;52.384;13.420;2022-08-25T06:08:52;23.77;;;19.73;;
11255;SDS011;5685;52.384;13.420;2022-08-25T06:11:56;21.60;;;19.30;;
11255;SDS011;5685;52.384;13.420;2022-08-25T06:14:58;25.00;;;20.83;;
11255;SDS011;5685;52.384;13.420;2022-08-25T06:18:01;24.27;;;20.73;;
11255;SDS011;5685;52.384;13.420;2022-08-25T06:21:07;22.93;;;20.53;;
11255;SDS011;5685;52.384;13.420;2022-08-25T06:24:11;24.87;;;20.20;;
11255;SDS011;5685;52.384;13.420;2022-08-25T06:27:15;22.50;;;19.67;;
11255;SDS011;5685;52.384;13.420;2022-08-25T06:30:19;26.33;;;21.43;;
11255;SDS011;5685;52.384;13.420;2022-08-25T06:33:23;25.57;;;21.43;;
11255;SDS011;5685;52.384;13.420;2022-08-25T06:36:25;28.33;;;22.83;;
11255;SDS011;5685;52.384;13.420;2022-08-25T06:39:27;28.67;;;22.77;;
11255;SDS011;5685;52.384;13.420;2022-08-25T06:42:32;31.77;;;23.73;;
11255;SDS011;5685;52.384;13.420;2022-08-25T06:45:34;31.93;;;22.57;;
11255;SDS011;5685;52.384;13.420;2022-08-25T06:48:36;26.37;;;23.50;;
11255;SDS011;5685;52.384;13.420;2022-08-25T06:51:39;31.37;;;22.90;;
11255;SDS011;5685;52.384;13.420;2022-08-25T06:54:41;27.03;;;21.57;;
11255;SDS011;5685;52.384;13.420;2022-08-25T06:57:46;29.17;;;22.13;;
11255;SDS011;5685;52.384;13.420;2022-08-25T07:00:48;26.23;;;22.50;;
11255;SDS011;5685;52.384;13.420;2022-08-25T07:03:53;27.00;;;23.77;;
11255;SDS011;5685;52.384;13.420;2022-08-25T07:06:58;24.80;;;21.87;;
11255;SDS011;5685;52.384;13.420;2022-08-25T07:10:00;32.03;;;24.13;;
11255;SDS011;5685;52.384;13.420;2022-08-25T07:13:04;25.30;;;22.60;;
11255;SDS011;5685;52.384;13.420;2022-08-25T07:16:07;26.13;;;22.90;;
11255;SDS011;5685;52.384;13.420;2022-08-25T07:19:10;27.33;;;24.37;;
11255;SDS011;5685;52.384;13.420;2022-08-25T07:22:13;28.90;;;22.90;;
11255;SDS011;5685;52.384;13.420;2022-08-25T07:25:15;26.47;;;22.90;;
11255;SDS011;5685;52.384;13.420;2022-08-25T07:28:20;26.87;;;22.10;;
11255;SDS011;5685;52.384;13.420;2022-08-25T07:31:24;29.27;;;22.57;;
11255;SDS011;5685;52.384;13.420;2022-08-25T07:34:27;23.47;;;20.97;;
11255;SDS011;5685;52.384;13.420;2022-08-25T07:37:47;24.63;;;21.90;;
11255;SDS011;5685;52.384;13.420;2022-08-25T07:40:59;23.20;;;20.90;;
11255;SDS011;5685;52.384;13.420;2022-08-25T07:44:04;26.60;;;21.40;;
11255;SDS011;5685;52.384;13.420;2022-08-25T07:47:08;24.97;;;20.87;;
11255;SDS011;5685;52.384;13.420;2022-08-25T07:50:10;24.00;;;21.57;;
11255;SDS011;5685;52.384;13.420;2022-08-25T07:53:15;25.87;;;21.57;;
11255;SDS011;5685;52.384;13.420;2022-08-25T07:56:18;25.73;;;21.40;;
11255;SDS011;5685;52.384;13.420;2022-08-25T07:59:22;28.80;;;22.27;;
11255;SDS011;5685;52.384;13.420;2022-08-25T08:02:24;22.60;;;20.30;;
11255;SDS011;5685;52.384;13.420;2022-08-25T08:05:27;23.30;;;20.90;;
11255;SDS011;5685;52.384;13.420;2022-08-25T08:08:29;24.30;;;20.63;;
11255;SDS011;5685;52.384;13.420;2022-08-25T08:11:33;23.30;;;20.73;;
11255;SDS011;5685;52.384;13.420;2022-08-25T08:14:41;24.03;;;21.27;;
11255;SDS011;5685;52.384;13.420;2022-08-25T08:17:43;24.90;;;20.87;;
11255;SDS011;5685;52.384;13.420;2022-08-25T08:20:46;23.27;;;20.40;;
11255;SDS011;5685;52.384;13.420;2022-08-25T08:23:50;25.20;;;21.33;;
11255;SDS011;5685;52.384;13.420;2022-08-25T08:26:53;27.80;;;21.97;;
11255;SDS011;5685;52.384;13.420;2022-08-25T08:29:57;25.80;;;22.03;;
11255;SDS011;5685;52.384;13.420;2022-08-25T08:32:59;27.43;;;23.23;;
11255;SDS011;5685;52.384;13.420;2022-08-25T08:36:03;29.00;;;22.83;;
11255;SDS011;5685;52.384;13.420;2022-08-25T08:39:09;27.17;;;23.10;;
11255;SDS011;5685;52.384;13.420;2022-08-25T08:42:20;29.37;;;23.50;;
11255;SDS011;5685;52.384;13.420;2022-08-25T08:45:40;29.03;;;23.23;;
11255;SDS011;5685;52.384;13.420;2022-08-25T08:48:50;23.83;;;20.97;;
11255;SDS011;5685;52.384;13.420;2022-08-25T08:52:01;24.13;;;21.63;;
11255;SDS011;5685;52.384;13.420;2022-08-25T08:55:11;23.87;;;20.97;;
11255;SDS011;5685;52.384;13.420;2022-08-25T08:58:23;23.83;;;21.27;;
11255;SDS011;5685;52.384;13.420;2022-08-25T09:01:33;23.23;;;20.83;;
11255;SDS011;5685;52.384;13.420;2022-08-25T09:04:44;23.17;;;20.80;;
11255;SDS011;5685;52.384;13.420;2022-08-25T09:07:54;23.40;;;19.73;;
11255;SDS011;5685;52.384;13.420;2022-08-25T09:11:01;23.57;;;20.27;;
11255;SDS011;5685;52.384;13.420;2022-08-25T09:14:13;21.83;;;19.73;;
11255;SDS011;5685;52.384;13.420;2022-08-25T09:17:39;22.93;;;20.13;;
11255;SDS011;5685;52.384;13.420;2022-08-25T09:20:59;22.03;;;19.90;;
11255;SDS011;5685;52.384;13.420;2022-08-25T09:24:12;22.53;;;19.40;;
11255;SDS011;5685;52.384;13.420;2022-08-25T09:27:30;20.67;;;18.77;;
11255;SDS011;5685;52.384;13.420;2022-08-25T09:30:43;21.53;;;19.30;;
11255;SDS011;5685;52.384;13.420;2022-08-25T09:33:54;20.43;;;18.43;;
11255;SDS011;5685;52.384;13.420;2022-08-25T09:36:58;20.80;;;18.73;;
11255;SDS011;5685;52.384;13.420;2022-08-25T09:40:02;23.07;;;19.90;;
11255;SDS011;5685;52.384;13.420;2022-08-25T09:43:08;20.77;;;18.83;;
11255;SDS011;5685;52.384;13.420;2022-08-25T09:46:23;21.17;;;19.07;;
11255;SDS011;5685;52.384;13.420;2022-08-25T09:49:34;20.73;;;18.57;;
11255;SDS011;5685;52.384;13.420;2022-08-25T09:52:40;20.93;;;18.73;;
11255;SDS011;5685;52.384;13.420;2022-08-25T09:55:43;20.43;;;18.20;;
11255;SDS011;5685;52.384;13.420;2022-08-25T09:58:48;21.80;;;19.47;;
11255;SDS011;5685;52.384;13.420;2022-08-25T10:01:52;21.57;;;18.50;;
11255;SDS011;5685;52.384;13.420;2022-08-25T10:04:58;19.17;;;17.33;;
11255;SDS011;5685;52.384;13.420;2022-08-25T10:08:23;19.57;;;17.80;;
11255;SDS011;5685;52.384;13.420;2022-08-25T10:11:37;20.07;;;17.93;;
11255;SDS011;5685;52.384;13.420;2022-08-25T10:14:44;18.77;;;17.17;;
11255;SDS011;5685;52.384;13.420;2022-08-25T10:17:47;18.60;;;16.93;;
11255;SDS011;5685;52.384;13.420;2022-08-25T10:21:01;18.17;;;16.57;;
11255;SDS011;5685;52.384;13.420;2022-08-25T10:24:09;18.37;;;16.83;;
11255;SDS011;5685;52.384;13.420;2022-08-25T10:27:16;19.80;;;17.80;;
11255;SDS011;5685;52.384;13.420;2022-08-25T10:30:26;18.23;;;16.73;;
11255;SDS011;5685;52.384;13.420;2022-08-25T10:33:37;19.20;;;17.40;;
11255;SDS011;5685;52.384;13.420;2022-08-25T10:36:55;18.60;;;16.87;;
11255;SDS011;5685;52.384;13.420;2022-08-25T10:40:11;18.97;;;17.00;;
11255;SDS011;5685;52.384;13.420;2022-08-25T10:43:23;19.00;;;17.20;;
11255;SDS011;5685;52.384;13.420;2022-08-25T10:46:34;19.73;;;17.87;;
11255;SDS011;5685;52.384;13.420;2022-08-25T10:49:43;19.07;;;17.30;;
11255;SDS011;5685;52.384;13.420;2022-08-25T10:52:55;21.77;;;19.50;;
11255;SDS011;5685;52.384;13.420;2022-08-25T10:56:16;20.67;;;18.73;;
11255;SDS011;5685;52.384;13.420;2022-08-25T10:59:36;21.50;;;19.37;;
11255;SDS011;5685;52.384;13.420;2022-08-25T11:03:08;21.43;;;19.43;;
11255;SDS011;5685;52.384;13.420;2022-08-25T11:06:25;20.80;;;18.67;;
11255;SDS011;5685;52.384;13.420;2022-08-25T11:09:42;21.87;;;19.73;;
11255;SDS011;5685;52.384;13.420;2022-08-25T11:12:49;20.60;;;18.67;;
11255;SDS011;5685;52.384;13.420;2022-08-25T11:16:00;19.87;;;18.07;;
11255;SDS011;5685;52.384;13.420;2022-08-25T11:19:08;20.37;;;18.40;;
11255;SDS011;5685;52.384;13.420;2022-08-25T11:22:19;19.37;;;17.37;;
11255;SDS011;5685;52.384;13.420;2022-08-25T11:25:30;20.17;;;18.23;;
11255;SDS011;5685;52.384;13.420;2022-08-25T11:28:41;18.67;;;16.70;;
11255;SDS011;5685;52.384;13.420;2022-08-25T11:31:52;18.73;;;16.83;;
11255;SDS011;5685;52.384;13.420;2022-08-25T11:34:55;19.07;;;17.07;;
11255;SDS011;5685;52.384;13.420;2022-08-25T11:38:08;19.07;;;17.07;;
11255;SDS011;5685;52.384;13.420;2022-08-25T11:41:30;21.70;;;18.20;;
11255;SDS011;5685;52.384;13.420;2022-08-25T11:44:47;22.33;;;16.77;;
11255;SDS011;5685;52.384;13.420;2022-08-25T11:48:02;19.13;;;17.37;;
11255;SDS011;5685;52.384;13.420;2022-08-25T11:51:29;19.00;;;16.97;;
11255;SDS011;5685;52.384;13.420;2022-08-25T11:54:34;17.60;;;15.77;;
11255;SDS011;5685;52.384;13.420;2022-08-25T11:57:41;17.97;;;16.07;;
11255;SDS011;5685;52.384;13.420;2022-08-25T12:00:46;19.10;;;17.30;;
11255;SDS011;5685;52.384;13.420;2022-08-25T12:03:55;21.23;;;17.07;;
11255;SDS011;5685;52.384;13.420;2022-08-25T12:07:28;18.73;;;17.03;;
11255;SDS011;5685;52.384;13.420;2022-08-25T12:14:50;18.57;;;16.40;;
11255;SDS011;5685;52.384;13.420;2022-08-25T12:18:10;18.63;;;16.93;;
11255;SDS011;5685;52.384;13.420;2022-08-25T12:24:42;21.90;;;17.00;;
11255;SDS011;5685;52.384;13.420;2022-08-25T12:27:52;19.67;;;17.57;;
11255;SDS011;5685;52.384;13.420;2022-08-25T12:31:10;18.73;;;16.93;;
11255;SDS011;5685;52.384;13.420;2022-08-25T12:34:29;21.80;;;17.97;;
11255;SDS011;5685;52.384;13.420;2022-08-25T12:38:01;19.10;;;17.10;;
11255;SDS011;5685;52.384;13.420;2022-08-25T12:41:08;19.90;;;17.80;;
11255;SDS011;5685;52.384;13.420;2022-08-25T12:44:15;18.63;;;16.80;;
11255;SDS011;5685;52.384;13.420;2022-08-25T12:47:36;20.00;;;16.20;;
11255;SDS011;5685;52.384;13.420;2022-08-25T12:50:39;20.77;;;16.27;;
11255;SDS011;5685;52.384;13.420;2022-08-25T12:53:45;18.40;;;16.57;;
11255;SDS011;5685;52.384;13.420;2022-08-25T12:56:54;25.60;;;16.67;;
11255;SDS011;5685;52.384;13.420;2022-08-25T13:00:04;19.40;;;17.37;;
11255;SDS011;5685;52.384;13.420;2022-08-25T13:03:31;19.00;;;17.30;;
11255;SDS011;5685;52.384;13.420;2022-08-25T13:07:08;18.53;;;16.47;;
11255;SDS011;5685;52.384;13.420;2022-08-25T13:13:48;18.13;;;16.63;;
11255;SDS011;5685;52.384;13.420;2022-08-25T13:17:01;18.13;;;16.40;;
11255;SDS011;5685;52.384;13.420;2022-08-25T13:20:11;18.10;;;16.27;;
11255;SDS011;5685;52.384;13.420;2022-08-25T13:23:17;18.47;;;16.70;;
11255;SDS011;5685;52.384;13.420;2022-08-25T13:26:27;17.30;;;15.90;;
11255;SDS011;5685;52.384;13.420;2022-08-25T13:29:32;17.97;;;16.50;;
11255;SDS011;5685;52.384;13.420;2022-08-25T13:32:37;17.47;;;15.97;;
11255;SDS011;5685;52.384;13.420;2022-08-25T13:35:44;17.87;;;16.03;;
11255;SDS011;5685;52.384;13.420;2022-08-25T13:38:49;16.23;;;14.83;;
11255;SDS011;5685;52.384;13.420;2022-08-25T13:41:51;17.73;;;16.20;;
11255;SDS011;5685;52.384;13.420;2022-08-25T13:44:56;17.33;;;15.53;;
11255;SDS011;5685;52.384;13.420;2022-08-25T13:47:59;17.33;;;15.80;;
11255;SDS011;5685;52.384;13.420;2022-08-25T13:51:07;16.53;;;14.87;;
11255;SDS011;5685;52.384;13.420;2022-08-25T13:54:23;18.13;;;15.73;;
11255;SDS011;5685;52.384;13.420;2022-08-25T13:57:30;17.97;;;15.97;;
11255;SDS011;5685;52.384;13.420;2022-08-25T14:00:34;17.07;;;15.50;;
11255;SDS011;5685;52.384;13.420;2022-08-25T14:03:43;18.43;;;16.47;;
11255;SDS011;5685;52.384;13.420;2022-08-25T14:06:52;18.17;;;16.53;;
11255;SDS011;5685;52.384;13.420;2022-08-25T14:10:08;18.43;;;16.83;;
11255;SDS011;5685;52.384;13.420;2022-08-25T14:13:28;18.23;;;16.47;;
11255;SDS011;5685;52.384;13.420;2022-08-25T14:16:35;17.10;;;15.47;;
11255;SDS011;5685;52.384;13.420;2022-08-25T14:19:43;16.73;;;15.30;;
11255;SDS011;5685;52.384;13.420;2022-08-25T14:22:48;17.77;;;16.07;;
11255;SDS011;5685;52.384;13.420;2022-08-25T14:25:55;17.63;;;15.87;;
11255;SDS011;5685;52.384;13.420;2022-08-25T14:28:58;17.70;;;16.07;;
11255;SDS011;5685;52.384;13.420;2022-08-25T14:32:00;16.37;;;14.73;;
11255;SDS011;5685;52.384;13.420;2022-08-25T14:35:03;16.43;;;15.23;;
11255;SDS011;5685;52.384;13.420;2022-08-25T14:38:09;17.33;;;15.50;;
11255;SDS011;5685;52.384;13.420;2022-08-25T14:41:12;16.83;;;15.50;;
11255;SDS011;5685;52.384;13.420;2022-08-25T14:44:14;16.47;;;15.13;;
11255;SDS011;5685;52.384;13.420;2022-08-25T14:47:17;17.03;;;15.73;;
11255;SDS011;5685;52.384;13.420;2022-08-25T14:50:20;18.20;;;15.50;;
11255;SDS011;5685;52.384;13.420;2022-08-25T14:53:24;17.90;;;16.07;;
11255;SDS011;5685;52.384;13.420;2022-08-25T14:56:29;15.80;;;14.27;;
11255;SDS011;5685;52.384;13.420;2022-08-25T14:59:33;16.80;;;15.20;;
11255;SDS011;5685;52.384;13.420;2022-08-25T15:02:36;16.83;;;14.87;;
11255;SDS011;5685;52.384;13.420;2022-08-25T15:05:42;16.00;;;14.60;;
11255;SDS011;5685;52.384;13.420;2022-08-25T15:08:45;17.07;;;15.57;;
11255;SDS011;5685;52.384;13.420;2022-08-25T15:12:05;17.20;;;15.57;;
11255;SDS011;5685;52.384;13.420;2022-08-25T15:15:08;16.17;;;15.00;;
11255;SDS011;5685;52.384;13.420;2022-08-25T15:18:18;17.07;;;15.57;;
11255;SDS011;5685;52.384;13.420;2022-08-25T15:21:21;16.60;;;15.10;;
11255;SDS011;5685;52.384;13.420;2022-08-25T15:24:25;16.00;;;14.60;;
11255;SDS011;5685;52.384;13.420;2022-08-25T15:27:28;16.83;;;15.33;;
11255;SDS011;5685;52.384;13.420;2022-08-25T15:30:31;17.20;;;15.63;;
11255;SDS011;5685;52.384;13.420;2022-08-25T15:33:34;17.10;;;15.63;;
11255;SDS011;5685;52.384;13.420;2022-08-25T15:36:36;16.20;;;15.00;;
11255;SDS011;5685;52.384;13.420;2022-08-25T15:39:41;17.07;;;15.60;;
11255;SDS011;5685;52.384;13.420;2022-08-25T15:42:45;16.90;;;15.23;;
11255;SDS011;5685;52.384;13.420;2022-08-25T15:45:47;17.43;;;15.97;;
11255;SDS011;5685;52.384;13.420;2022-08-25T15:48:50;16.63;;;15.27;;
11255;SDS011;5685;52.384;13.420;2022-08-25T15:51:53;16.93;;;15.23;;
11255;SDS011;5685;52.384;13.420;2022-08-25T15:54:57;16.13;;;14.73;;
11255;SDS011;5685;52.384;13.420;2022-08-25T15:58:00;17.10;;;15.33;;
11255;SDS011;5685;52.384;13.420;2022-08-25T16:01:02;17.03;;;15.53;;
11255;SDS011;5685;52.384;13.420;2022-08-25T16:04:05;18.23;;;16.40;;
11255;SDS011;5685;52.384;13.420;2022-08-25T16:07:07;17.03;;;15.53;;
11255;SDS011;5685;52.384;13.420;2022-08-25T16:10:12;15.63;;;14.27;;
11255;SDS011;5685;52.384;13.420;2022-08-25T16:13:14;15.80;;;14.53;;
11255;SDS011;5685;52.384;13.420;2022-08-25T16:16:16;17.27;;;15.67;;
11255;SDS011;5685;52.384;13.420;2022-08-25T16:19:19;15.57;;;14.40;;
11255;SDS011;5685;52.384;13.420;2022-08-25T16:22:22;15.67;;;14.37;;
11255;SDS011;5685;52.384;13.420;2022-08-25T16:25:26;16.53;;;15.07;;
11255;SDS011;5685;52.384;13.420;2022-08-25T16:28:28;16.30;;;14.97;;
11255;SDS011;5685;52.384;13.420;2022-08-25T16:31:31;16.27;;;14.90;;
11255;SDS011;5685;52.384;13.420;2022-08-25T16:34:33;16.27;;;14.57;;
11255;SDS011;5685;52.384;13.420;2022-08-25T16:37:36;16.73;;;15.03;;
11255;SDS011;5685;52.384;13.420;2022-08-25T16:40:40;14.93;;;13.80;;
11255;SDS011;5685;52.384;13.420;2022-08-25T16:43:43;15.60;;;14.10;;
11255;SDS011;5685;52.384;13.420;2022-08-25T16:46:46;16.87;;;15.23;;
11255;SDS011;5685;52.384;13.420;2022-08-25T16:49:49;15.60;;;14.43;;
11255;SDS011;5685;52.384;13.420;2022-08-25T16:52:51;16.47;;;15.00;;
11255;SDS011;5685;52.384;13.420;2022-08-25T16:56:12;15.27;;;13.80;;
11255;SDS011;5685;52.384;13.420;2022-08-25T16:59:15;15.07;;;13.97;;
11255;SDS011;5685;52.384;13.420;2022-08-25T17:02:17;16.00;;;14.40;;
11255;SDS011;5685;52.384;13.420;2022-08-25T17:05:19;16.77;;;15.27;;
11255;SDS011;5685;52.384;13.420;2022-08-25T17:08:21;17.67;;;14.77;;
11255;SDS011;5685;52.384;13.420;2022-08-25T17:11:32;16.20;;;14.90;;
11255;SDS011;5685;52.384;13.420;2022-08-25T17:14:42;15.60;;;14.30;;
11255;SDS011;5685;52.384;13.420;2022-08-25T17:17:44;16.97;;;15.37;;
11255;SDS011;5685;52.384;13.420;2022-08-25T17:20:46;15.53;;;14.17;;
11255;SDS011;5685;52.384;13.420;2022-08-25T17:23:48;16.17;;;14.57;;
11255;SDS011;5685;52.384;13.420;2022-08-25T17:26:51;17.03;;;14.97;;
11255;SDS011;5685;52.384;13.420;2022-08-25T17:29:54;16.63;;;15.13;;
11255;SDS011;5685;52.384;13.420;2022-08-25T17:32:56;16.50;;;15.27;;
11255;SDS011;5685;52.384;13.420;2022-08-25T17:35:59;16.07;;;14.77;;
11255;SDS011;5685;52.384;13.420;2022-08-25T17:39:01;16.63;;;15.27;;
11255;SDS011;5685;52.384;13.420;2022-08-25T17:42:06;15.83;;;14.63;;
11255;SDS011;5685;52.384;13.420;2022-08-25T17:45:08;16.87;;;15.33;;
11255;SDS011;5685;52.384;13.420;2022-08-25T17:48:11;16.37;;;14.70;;
11255;SDS011;5685;52.384;13.420;2022-08-25T17:51:13;16.13;;;14.53;;
11255;SDS011;5685;52.384;13.420;2022-08-25T17:54:15;16.43;;;15.13;;
11255;SDS011;5685;52.384;13.420;2022-08-25T17:57:19;16.20;;;14.67;;
11255;SDS011;5685;52.384;13.420;2022-08-25T18:00:22;15.40;;;14.00;;
11255;SDS011;5685;52.384;13.420;2022-08-25T18:03:25;15.83;;;14.30;;
11255;SDS011;5685;52.384;13.420;2022-08-25T18:06:28;16.57;;;15.10;;
11255;SDS011;5685;52.384;13.420;2022-08-25T18:09:31;15.23;;;14.13;;
11255;SDS011;5685;52.384;13.420;2022-08-25T18:12:35;16.00;;;14.50;;
11255;SDS011;5685;52.384;13.420;2022-08-25T18:15:38;15.20;;;13.87;;
11255;SDS011;5685;52.384;13.420;2022-08-25T18:18:40;15.47;;;13.97;;